Maria S. Merian — DBBT — position and weather

sailwx.info

Track history (hours):
 
Tides and Currents Weather Stations Pressure Air Temp Water Temp Dewpoint Dewpoint Depression Visibility Wind Speed Wind Dir Waves Ship Positions

Oceanographic research ship Maria S. Merian (Germany)

Last reported at 2016-May-26 06:00 UTC. Time now 2016-May-26 12:36 UTC.
Position N 58°54' W 047°42'.

Length 94.8 m; beam 19.2 m; draft 6.5 m.

Type: Other ship. MMSI: 211753000.

Wind from 330 at 25 knots

Barometer 1019.4 mb
Air temperature 2.8 ° C
Dewpoint -2.9 ° C
Water temperature 4.2 ° C

Date/timePositionNaut miles runAvg speedWind from/ knotsBaromVisibWave heightAir tempDewpointWater temp
2016-May-26 06:00N 58°54' W 047°42'14 6.9 330 / 251019.4 2.8-2.9 4.2
2016-May-26 04:00N 58°48' W 048°06'0 0.0 330 / 211020.8 2.7-2.7 4.3
2016-May-26 03:00N 58°48' W 048°06'0 0.0 330 / 231021.2 2.8-3.1 4.2
2016-May-26 02:00N 58°48' W 048°06'1515.2 330 / 251021.2 3.2-2.5 4.4
2016-May-26 01:00N 58°36' W 048°24'22 4.4 330 / 271020.3 3.1-2.5 4.1
2016-May-25 20:00N 58°18' W 048°48'2412.1 340 / 211020.1 2.8-1.1 4.4
2016-May-25 18:00N 57°54' W 048°54'0 0.0 350 / 231019.6 3.2-0.5 4.4
2016-May-25 17:00N 57°54' W 048°54'30 6.0 340 / 211019.6 3.5-0.3 4.4
2016-May-25 12:00N 57°24' W 049°00'0 0.0 330 / 231014.9 4.7 3.0 4.5
2016-May-25 11:00N 57°24' W 049°00'6 6.0 320 / 191013.5 4.9 3.7 4.5
2016-May-25 10:00N 57°18' W 049°00'1212.0 320 / 191012.6 5.0 3.8 4.3
2016-May-25 09:00N 57°06' W 049°00'18 4.6 310 / 171011.6 5.1 4.0 4.5
2016-May-25 05:00N 56°48' W 049°06'26 5.2 220 / 231008.5 6.7 4.2 4.3
2016-May-25 00:00N 56°24' W 049°24'1010.0 180 / 271008.4 5.6 4.3 4.5
2016-May-24 23:00N 56°24' W 049°42'1514.6 170 / 271008.6 5.2 4.5 4.7
2016-May-24 22:00N 56°30' W 050°06'79 9.9 160 / 271008.5 5.4 4.4 4.3
2016-May-24 14:00N 56°30' W 052°30'10 9.9 130 / 81011.3 4.6 4.1 4.5
2016-May-24 13:00N 56°30' W 052°12'1514.6 180 / 41011.5 4.6 3.9 4.5
2016-May-24 12:00N 56°24' W 051°48'1010.0 230 / 61012.5 4.6 3.8 4.4
2016-May-24 11:00N 56°24' W 051°30'1211.6 310 / 101011.2 4.8 3.4 4.3
2016-May-24 10:00N 56°18' W 051°12'1514.6 280 / 161011.0 4.8 3.8 4.5
2016-May-24 09:00N 56°12' W 050°48'1010.0 280 / 171011.2 4.9 3.9 4.4
2016-May-24 08:00N 56°12' W 050°30'1211.7 260 / 171009.7 4.8 4.0 4.3
2016-May-24 07:00N 56°06' W 050°12'1010.0 260 / 191008.6 4.9 4.1 4.5
2016-May-24 06:00N 56°06' W 049°54'31 5.2 260 / 191007.7 5.0 4.2 4.4
2016-May-24 00:00N 55°42' W 049°18'12 4.2 200 / 211008.0 4.9 4.4 4.2
2016-May-23 21:00N 55°30' W 049°24'6 6.0 210 / 211009.7 5.2 4.4 4.3
2016-May-23 20:00N 55°24' W 049°24'24 8.1 200 / 251009.3 5.1 4.1 4.4
2016-May-23 17:00N 55°00' W 049°30'0 0.0 180 / 211011.8 4.3 3.9 4.4
2016-May-23 16:00N 55°00' W 049°30'7 6.9 180 / 231013.1 4.4 3.5 4.4
2016-May-23 15:00N 55°06' W 049°36'9 9.1 170 / 231014.6 3.4 2.7 4.3
2016-May-23 14:00N 55°12' W 049°48'3812.8 170 / 211014.6 2.2 1.5 4.1
2016-May-23 11:00N 55°42' W 050°30'1211.8 200 / 141015.7 3.1-0.9 4.2
2016-May-23 10:00N 55°48' W 050°48'1413.8 220 / 101016.7 2.8-1.1 3.6
2016-May-23 09:00N 56°00' W 051°00'1413.7 240 / 121015.8 2.5-2.5 4.4
2016-May-23 08:00N 56°12' W 051°12'1211.7 240 / 101016.7 2.5-2.8 4.2
2016-May-23 07:00N 56°18' W 051°30'1413.7 250 / 141016.7 2.6-2.7 4.2
2016-May-23 06:00N 56°30' W 051°42'1211.6 250 / 141016.8 2.4-1.8 4.5
2016-May-23 05:00N 56°36' W 052°00'1413.7 230 / 161016.5 2.7-2.5 4.5
2016-May-23 04:00N 56°48' W 052°12'0 0.0 260 / 101016.5 2.7-1.3 4.5
2016-May-23 03:00N 56°48' W 052°12'9 3.0 270 / 141016.5 2.7-0.6 4.6
2016-May-23 00:00N 56°42' W 052°24'9 8.9 300 / 141014.7 2.7-0.0 4.5
2016-May-22 23:00N 56°36' W 052°36'7 1.4 310 / 141014.5 2.5 0.5 4.5
2016-May-22 18:00N 56°30' W 052°30'0 0.0 260 / 191013.9 2.6-0.8 4.5
2016-May-22 17:00N 56°30' W 052°30'2110.3 280 / 171013.4 3.2 0.2 4.5
2016-May-22 15:00N 56°48' W 052°12'0 0.0 280 / 141012.5 2.8 0.6 4.8
2016-May-22 14:00N 56°48' W 052°12'0 0.0 250 / 81012.5 1.8 1.5 4.6
2016-May-22 12:00N 56°48' W 052°12'3 3.3 270 / 101011.9 3.3 0.1 4.6
2016-May-22 11:00N 56°48' W 052°06'7 1.4 270 / 81011.5 2.3-0.9 4.6
2016-May-22 06:00N 56°54' W 052°12'0 0.0 270 / 101010.5 2.3-0.0 4.4
2016-May-22 05:00N 56°54' W 052°12'9 4.4 280 / 141010.4 2.1-0.1 4.6
2016-May-22 03:00N 56°48' W 052°24'7 6.8 290 / 171010.2 2.5 0.4 4.5
2016-May-22 02:00N 56°42' W 052°30'0 0.0 310 / 141010.9 2.5 0.3 4.5
2016-May-22 01:00N 56°42' W 052°30'0 0.0 320 / 121010.2 2.3-0.2 4.5
2016-May-22 00:00N 56°42' W 052°30'7 6.8 300 / 161009.5 2.4-0.6 4.6
2016-May-21 23:00N 56°36' W 052°36'0 0.0 340 / 141009.8 2.3 0.3 4.5
2016-May-21 22:00N 56°36' W 052°36'3 0.8 310 / 161009.3 2.8-0.3 4.5
2016-May-21 18:00N 56°36' W 052°42'3 3.3 310 / 171008.6 2.6 1.1 4.7
2016-May-21 17:00N 56°36' W 052°36'12 6.2 300 / 161008.1 2.3 0.5 4.6
2016-May-21 15:00N 56°24' W 052°30'1413.7 280 / 121007.8 2.8-0.0 4.6
2016-May-21 14:00N 56°12' W 052°18'1212.5 260 / 141007.9 2.8 0.4 4.6
2016-May-21 13:00N 56°00' W 052°12'2512.5 270 / 141008.0 2.8-1.5 4.3
2016-May-21 11:00N 55°36' W 052°00'1413.8 280 / 81008.4 2.8 0.5 3.9
2016-May-21 10:00N 55°24' W 051°48'1212.5 250 / 61008.8 2.3 2.1 1.8
2016-May-21 09:00N 55°12' W 051°42'1212.5 260 / 41009.4 2.3 2.3 2.4
2016-May-21 08:00N 55°00' W 051°36'1212.5 300 / 81009.8 2.4 2.3 2.2
2016-May-21 07:00N 54°48' W 051°30'2613.1 320 / 81010.0 2.1 2.1 2.1
2016-May-21 05:00N 54°24' W 051°12'1312.5 340 / 81010.1 2.7 2.7 3.5
2016-May-21 04:00N 54°12' W 051°06'2613.1 330 / 101009.8 3.4 3.3 4.3
2016-May-21 02:00N 53°48' W 050°48'1312.5 300 / 81009.7 3.5 2.9 3.4
2016-May-21 01:00N 53°36' W 050°42'19 6.5 310 / 61010.3 3.7 3.7 4.2
2016-May-20 22:00N 53°18' W 050°30'0 0.0 260 / 121010.5 3.7 2.8 4.5
2016-May-20 21:00N 53°18' W 050°30'4 3.6 250 / 121010.3 3.7 2.5 4.5
2016-May-20 20:00N 53°18' W 050°36'4 1.8 260 / 141010.2 3.8 2.7 4.6
2016-May-20 18:00N 53°18' W 050°30'4 1.8 250 / 161009.6 4.1 2.6 4.5
2016-May-20 16:00N 53°18' W 050°24'9 2.3 240 / 171009.7 4.2 2.6 4.5
2016-May-20 12:00N 53°24' W 050°12'4 3.6 220 / 161010.1 4.4 3.1 4.5
2016-May-20 11:00N 53°24' W 050°06'6811.4 240 / 141010.4 4.2 3.2 4.4
2016-May-20 05:00N 54°30' W 049°36'0 0.0 190 / 161011.8 2.7 2.7 3.8
2016-May-20 04:00N 54°30' W 049°36'0 0.0 200 / 161012.9 2.5 2.5 3.8
2016-May-20 02:00N 54°30' W 049°36'3015.1 240 / 141014.0 1.8 4.4
2016-May-20 00:00N 54°00' W 049°42'0 0.0 260 / 141013.7 2.4 1.9 4.5
2016-May-19 23:00N 54°00' W 049°42'0 0.0 260 / 121013.7 3.0 2.3 4.4
2016-May-19 21:00N 54°00' W 049°42'6 6.0 280 / 101013.6 3.9 2.7 4.7
2016-May-19 20:00N 53°54' W 049°42'1312.5 280 / 161012.9 4.1 2.8 4.3
2016-May-19 19:00N 53°42' W 049°48'6 6.0 300 / 141013.0 3.8 2.3 5.0
2016-May-19 18:00N 53°36' W 049°48'4 3.6 310 / 141013.1 3.9 2.8 4.6
2016-May-19 17:00N 53°36' W 049°42'0 0.0 310 / 161012.7 4.1 3.2 4.5
2016-May-19 16:00N 53°36' W 049°42'9 9.3 310 / 171012.5 4.3 3.4 4.5
2016-May-19 15:00N 53°30' W 049°54'16 5.2 320 / 171012.1 4.4 3.3 4.9
2016-May-19 12:00N 53°24' W 050°18'0 0.0 320 / 211011.5 3.7 3.2 4.5
2016-May-19 09:00N 53°24' W 050°18'7 7.0 330 / 231010.0 4.3 3.3 4.7
2016-May-19 08:00N 53°18' W 050°24'40 2.7 320 / 251009.8 3.9 3.4 4.1
2016-May-18 17:00N 52°54' W 051°18'6 2.0 320 / 191003.1 2.4 2.4 3.3
2016-May-18 14:00N 53°00' W 051°18'6 6.0 340 / 161001.3 3.4 3.0 3.2
2016-May-18 13:00N 52°54' W 051°18'7 3.6 320 / 121000.9 3.0 3.0 3.2
2016-May-18 11:00N 52°54' W 051°30'0 0.0 330 / 101000.2 0.9 0.9 0.4
2016-May-18 10:00N 52°54' W 051°30'0 0.0 310 / 121000.1 0.6 0.6 0.3
2016-May-18 09:00N 52°54' W 051°30'6 6.0 320 / 12999.7 0.8 0.2
2016-May-18 08:00N 52°48' W 051°30'4 1.2 320 / 14999.5 0.4 0.4-0.0
2016-May-18 05:00N 52°48' W 051°36'9 3.1 340 / 6999.0 -0.4-0.4-0.4
2016-May-18 02:00N 52°54' W 051°24'0 0.0 999 999.1 0.3 0.3 0.8
2016-May-18 00:00N 52°54' W 051°24'4 3.6 160 / 4999.1 0.6 0.6 1.7
2016-May-17 23:00N 52°54' W 051°18'0 0.0 160 / 4999.7 1.1 1.0 3.5
2016-May-17 22:00N 52°54' W 051°18'16 8.1 160 / 6999.7 1.1 1.0 3.4
2016-May-17 20:00N 53°06' W 051°00'7 3.5 150 / 161000.1 2.9 2.2 3.6
2016-May-17 18:00N 53°12' W 050°54'0 0.0 170 / 141001.1 2.7 1.7 3.5
2016-May-17 17:00N 53°12' W 050°54'0 0.0 170 / 141001.0 3.0 1.9 3.5
2016-May-17 16:00N 53°12' W 050°54'0 0.0 170 / 161001.4 2.9 2.0 3.3
2016-May-17 15:00N 53°12' W 050°54'7 7.0 160 / 171001.7 2.7 2.7 3.1
2016-May-17 14:00N 53°06' W 051°00'4 3.6 170 / 141002.0 2.5 2.4 3.6
2016-May-17 13:00N 53°06' W 051°06'4 3.6 180 / 191001.5 1.4 1.2 3.2
2016-May-17 12:00N 53°06' W 051°00'0 0.0 190 / 141000.8 1.6 1.6 3.3
2016-May-17 10:00N 53°06' W 051°00'19 6.3 210 / 171001.3 0.9 3.2
2016-May-17 07:00N 53°12' W 050°30'6 6.0 150 / 191000.6 3.2 3.1 3.4
2016-May-17 06:00N 53°18' W 050°30'0 0.0 120 / 191001.2 3.9 3.9 3.4
2016-May-17 05:00N 53°18' W 050°30'16 8.1 110 / 191002.3 3.6 3.5 3.3
2016-May-17 03:00N 53°06' W 050°48'0 0.0 110 / 211004.2 3.5 3.5 3.0
2016-May-17 02:00N 53°06' W 050°48'4 3.6 100 / 211004.9 3.1 3.1 2.8
2016-May-17 01:00N 53°06' W 050°54'4 1.8 120 / 231005.7 2.8 3.1
2016-May-16 23:00N 53°06' W 051°00'7 3.5 110 / 191007.2 2.5 3.1
2016-May-16 21:00N 53°00' W 051°06'9 9.4 120 / 161007.0 2.2 2.2 3.4
2016-May-16 20:00N 53°06' W 050°54'28 5.6 120 / 141007.3 2.0 2.0 3.3
2016-May-16 15:00N 53°24' W 050°18'1212.3 280 / 41008.7 2.7 2.7 4.3
2016-May-16 14:00N 53°30' W 050°00'9 9.3 300 / 61008.4 2.5 2.5 4.7
2016-May-16 13:00N 53°36' W 049°48'0 0.0 280 / 61008.2 2.5 2.5 4.4
2016-May-16 12:00N 53°36' W 049°48'6 6.0 320 / 81007.3 2.7 2.7 4.3
2016-May-16 11:00N 53°30' W 049°48'0 0.0 330 / 81006.9 2.9 2.9 4.4
2016-May-16 10:00N 53°30' W 049°48'0 0.0 320 / 101007.3 3.2 3.2 4.4
2016-May-16 09:00N 53°30' W 049°48'12 4.1 320 / 101006.9 3.5 3.4 4.4
2016-May-16 06:00N 53°24' W 050°06'   340 / 121005.6 3.0 3.0 4.1
Track history (hours):
 
Tides and Currents Weather Stations Pressure Air Temp Water Temp Dewpoint Dewpoint Depression Visibility Wind Speed Wind Dir Waves Ship Positions

Oceanographic research ship Maria S. Merian (Germany)

Last reported at 2016-May-26 06:00 UTC. Time now 2016-May-26 12:36 UTC.
Position N 58°54' W 047°42'.

Length 94.8 m; beam 19.2 m; draft 6.5 m.

Type: Other ship. MMSI: 211753000.

Wind from 330 at 25 knots

Barometer 1019.4 mb
Air temperature 2.8 ° C
Dewpoint -2.9 ° C
Water temperature 4.2 ° C

Date/timePositionNaut miles runAvg speedWind from/ knotsBaromVisibWave heightAir tempDewpointWater temp
2016-May-26 06:00N 58°54' W 047°42'14 6.9 330 / 251019.4 2.8-2.9 4.2
2016-May-26 04:00N 58°48' W 048°06'0 0.0 330 / 211020.8 2.7-2.7 4.3
2016-May-26 03:00N 58°48' W 048°06'0 0.0 330 / 231021.2 2.8-3.1 4.2
2016-May-26 02:00N 58°48' W 048°06'1515.2 330 / 251021.2 3.2-2.5 4.4
2016-May-26 01:00N 58°36' W 048°24'22 4.4 330 / 271020.3 3.1-2.5 4.1
2016-May-25 20:00N 58°18' W 048°48'2412.1 340 / 211020.1 2.8-1.1 4.4
2016-May-25 18:00N 57°54' W 048°54'0 0.0 350 / 231019.6 3.2-0.5 4.4
2016-May-25 17:00N 57°54' W 048°54'30 6.0 340 / 211019.6 3.5-0.3 4.4
2016-May-25 12:00N 57°24' W 049°00'0 0.0 330 / 231014.9 4.7 3.0 4.5
2016-May-25 11:00N 57°24' W 049°00'6 6.0 320 / 191013.5 4.9 3.7 4.5
2016-May-25 10:00N 57°18' W 049°00'1212.0 320 / 191012.6 5.0 3.8 4.3
2016-May-25 09:00N 57°06' W 049°00'18 4.6 310 / 171011.6 5.1 4.0 4.5
2016-May-25 05:00N 56°48' W 049°06'26 5.2 220 / 231008.5 6.7 4.2 4.3
2016-May-25 00:00N 56°24' W 049°24'1010.0 180 / 271008.4 5.6 4.3 4.5
2016-May-24 23:00N 56°24' W 049°42'1514.6 170 / 271008.6 5.2 4.5 4.7
2016-May-24 22:00N 56°30' W 050°06'79 9.9 160 / 271008.5 5.4 4.4 4.3
2016-May-24 14:00N 56°30' W 052°30'10 9.9 130 / 81011.3 4.6 4.1 4.5
2016-May-24 13:00N 56°30' W 052°12'1514.6 180 / 41011.5 4.6 3.9 4.5
2016-May-24 12:00N 56°24' W 051°48'1010.0 230 / 61012.5 4.6 3.8 4.4
2016-May-24 11:00N 56°24' W 051°30'1211.6 310 / 101011.2 4.8 3.4 4.3
2016-May-24 10:00N 56°18' W 051°12'1514.6 280 / 161011.0 4.8 3.8 4.5
2016-May-24 09:00N 56°12' W 050°48'1010.0 280 / 171011.2 4.9 3.9 4.4
2016-May-24 08:00N 56°12' W 050°30'1211.7 260 / 171009.7 4.8 4.0 4.3
2016-May-24 07:00N 56°06' W 050°12'1010.0 260 / 191008.6 4.9 4.1 4.5
2016-May-24 06:00N 56°06' W 049°54'31 5.2 260 / 191007.7 5.0 4.2 4.4
2016-May-24 00:00N 55°42' W 049°18'12 4.2 200 / 211008.0 4.9 4.4 4.2
2016-May-23 21:00N 55°30' W 049°24'6 6.0 210 / 211009.7 5.2 4.4 4.3
2016-May-23 20:00N 55°24' W 049°24'24 8.1 200 / 251009.3 5.1 4.1 4.4
2016-May-23 17:00N 55°00' W 049°30'0 0.0 180 / 211011.8 4.3 3.9 4.4
2016-May-23 16:00N 55°00' W 049°30'7 6.9 180 / 231013.1 4.4 3.5 4.4
2016-May-23 15:00N 55°06' W 049°36'9 9.1 170 / 231014.6 3.4 2.7 4.3
2016-May-23 14:00N 55°12' W 049°48'3812.8 170 / 211014.6 2.2 1.5 4.1
2016-May-23 11:00N 55°42' W 050°30'1211.8 200 / 141015.7 3.1-0.9 4.2
2016-May-23 10:00N 55°48' W 050°48'1413.8 220 / 101016.7 2.8-1.1 3.6
2016-May-23 09:00N 56°00' W 051°00'1413.7 240 / 121015.8 2.5-2.5 4.4
2016-May-23 08:00N 56°12' W 051°12'1211.7 240 / 101016.7 2.5-2.8 4.2
2016-May-23 07:00N 56°18' W 051°30'1413.7 250 / 141016.7 2.6-2.7 4.2
2016-May-23 06:00N 56°30' W 051°42'1211.6 250 / 141016.8 2.4-1.8 4.5
2016-May-23 05:00N 56°36' W 052°00'1413.7 230 / 161016.5 2.7-2.5 4.5
2016-May-23 04:00N 56°48' W 052°12'0 0.0 260 / 101016.5 2.7-1.3 4.5
2016-May-23 03:00N 56°48' W 052°12'9 3.0 270 / 141016.5 2.7-0.6 4.6
2016-May-23 00:00N 56°42' W 052°24'9 8.9 300 / 141014.7 2.7-0.0 4.5
2016-May-22 23:00N 56°36' W 052°36'7 1.4 310 / 141014.5 2.5 0.5 4.5
2016-May-22 18:00N 56°30' W 052°30'0 0.0 260 / 191013.9 2.6-0.8 4.5
2016-May-22 17:00N 56°30' W 052°30'2110.3 280 / 171013.4 3.2 0.2 4.5
2016-May-22 15:00N 56°48' W 052°12'0 0.0 280 / 141012.5 2.8 0.6 4.8
2016-May-22 14:00N 56°48' W 052°12'0 0.0 250 / 81012.5 1.8 1.5 4.6
2016-May-22 12:00N 56°48' W 052°12'3 3.3 270 / 101011.9 3.3 0.1 4.6
2016-May-22 11:00N 56°48' W 052°06'7 1.4 270 / 81011.5 2.3-0.9 4.6
2016-May-22 06:00N 56°54' W 052°12'0 0.0 270 / 101010.5 2.3-0.0 4.4
2016-May-22 05:00N 56°54' W 052°12'9 4.4 280 / 141010.4 2.1-0.1 4.6
2016-May-22 03:00N 56°48' W 052°24'7 6.8 290 / 171010.2 2.5 0.4 4.5
2016-May-22 02:00N 56°42' W 052°30'0 0.0 310 / 141010.9 2.5 0.3 4.5
2016-May-22 01:00N 56°42' W 052°30'0 0.0 320 / 121010.2 2.3-0.2 4.5
2016-May-22 00:00N 56°42' W 052°30'7 6.8 300 / 161009.5 2.4-0.6 4.6
2016-May-21 23:00N 56°36' W 052°36'0 0.0 340 / 141009.8 2.3 0.3 4.5
2016-May-21 22:00N 56°36' W 052°36'3 0.8 310 / 161009.3 2.8-0.3 4.5
2016-May-21 18:00N 56°36' W 052°42'3 3.3 310 / 171008.6 2.6 1.1 4.7
2016-May-21 17:00N 56°36' W 052°36'12 6.2 300 / 161008.1 2.3 0.5 4.6
2016-May-21 15:00N 56°24' W 052°30'1413.7 280 / 121007.8 2.8-0.0 4.6
2016-May-21 14:00N 56°12' W 052°18'1212.5 260 / 141007.9 2.8 0.4 4.6
2016-May-21 13:00N 56°00' W 052°12'2512.5 270 / 141008.0 2.8-1.5 4.3
2016-May-21 11:00N 55°36' W 052°00'1413.8 280 / 81008.4 2.8 0.5 3.9
2016-May-21 10:00N 55°24' W 051°48'1212.5 250 / 61008.8 2.3 2.1 1.8
2016-May-21 09:00N 55°12' W 051°42'1212.5 260 / 41009.4 2.3 2.3 2.4
2016-May-21 08:00N 55°00' W 051°36'1212.5 300 / 81009.8 2.4 2.3 2.2
2016-May-21 07:00N 54°48' W 051°30'2613.1 320 / 81010.0 2.1 2.1 2.1
2016-May-21 05:00N 54°24' W 051°12'1312.5 340 / 81010.1 2.7 2.7 3.5
2016-May-21 04:00N 54°12' W 051°06'2613.1 330 / 101009.8 3.4 3.3 4.3
2016-May-21 02:00N 53°48' W 050°48'1312.5 300 / 81009.7 3.5 2.9 3.4
2016-May-21 01:00N 53°36' W 050°42'19 6.5 310 / 61010.3 3.7 3.7 4.2
2016-May-20 22:00N 53°18' W 050°30'0 0.0 260 / 121010.5 3.7 2.8 4.5
2016-May-20 21:00N 53°18' W 050°30'4 3.6 250 / 121010.3 3.7 2.5 4.5
2016-May-20 20:00N 53°18' W 050°36'4 1.8 260 / 141010.2 3.8 2.7 4.6
2016-May-20 18:00N 53°18' W 050°30'4 1.8 250 / 161009.6 4.1 2.6 4.5
2016-May-20 16:00N 53°18' W 050°24'9 2.3 240 / 171009.7 4.2 2.6 4.5
2016-May-20 12:00N 53°24' W 050°12'4 3.6 220 / 161010.1 4.4 3.1 4.5
2016-May-20 11:00N 53°24' W 050°06'6811.4 240 / 141010.4 4.2 3.2 4.4
2016-May-20 05:00N 54°30' W 049°36'0 0.0 190 / 161011.8 2.7 2.7 3.8
2016-May-20 04:00N 54°30' W 049°36'0 0.0 200 / 161012.9 2.5 2.5 3.8
2016-May-20 02:00N 54°30' W 049°36'3015.1 240 / 141014.0 1.8 4.4
2016-May-20 00:00N 54°00' W 049°42'0 0.0 260 / 141013.7 2.4 1.9 4.5
2016-May-19 23:00N 54°00' W 049°42'0 0.0 260 / 121013.7 3.0 2.3 4.4
2016-May-19 21:00N 54°00' W 049°42'6 6.0 280 / 101013.6 3.9 2.7 4.7
2016-May-19 20:00N 53°54' W 049°42'1312.5 280 / 161012.9 4.1 2.8 4.3
2016-May-19 19:00N 53°42' W 049°48'6 6.0 300 / 141013.0 3.8 2.3 5.0
2016-May-19 18:00N 53°36' W 049°48'4 3.6 310 / 141013.1 3.9 2.8 4.6
2016-May-19 17:00N 53°36' W 049°42'0 0.0 310 / 161012.7 4.1 3.2 4.5
2016-May-19 16:00N 53°36' W 049°42'9 9.3 310 / 171012.5 4.3 3.4 4.5
2016-May-19 15:00N 53°30' W 049°54'16 5.2 320 / 171012.1 4.4 3.3 4.9
2016-May-19 12:00N 53°24' W 050°18'0 0.0 320 / 211011.5 3.7 3.2 4.5
2016-May-19 09:00N 53°24' W 050°18'7 7.0 330 / 231010.0 4.3 3.3 4.7
2016-May-19 08:00N 53°18' W 050°24'40 2.7 320 / 251009.8 3.9 3.4 4.1
2016-May-18 17:00N 52°54' W 051°18'6 2.0 320 / 191003.1 2.4 2.4 3.3
2016-May-18 14:00N 53°00' W 051°18'6 6.0 340 / 161001.3 3.4 3.0 3.2
2016-May-18 13:00N 52°54' W 051°18'7 3.6 320 / 121000.9 3.0 3.0 3.2
2016-May-18 11:00N 52°54' W 051°30'0 0.0 330 / 101000.2 0.9 0.9 0.4
2016-May-18 10:00N 52°54' W 051°30'0 0.0 310 / 121000.1 0.6 0.6 0.3
2016-May-18 09:00N 52°54' W 051°30'6 6.0 320 / 12999.7 0.8 0.2
2016-May-18 08:00N 52°48' W 051°30'4 1.2 320 / 14999.5 0.4 0.4-0.0
2016-May-18 05:00N 52°48' W 051°36'9 3.1 340 / 6999.0 -0.4-0.4-0.4
2016-May-18 02:00N 52°54' W 051°24'0 0.0 999 999.1 0.3 0.3 0.8
2016-May-18 00:00N 52°54' W 051°24'4 3.6 160 / 4999.1 0.6 0.6 1.7
2016-May-17 23:00N 52°54' W 051°18'0 0.0 160 / 4999.7 1.1 1.0 3.5
2016-May-17 22:00N 52°54' W 051°18'16 8.1 160 / 6999.7 1.1 1.0 3.4
2016-May-17 20:00N 53°06' W 051°00'7 3.5 150 / 161000.1 2.9 2.2 3.6
2016-May-17 18:00N 53°12' W 050°54'0 0.0 170 / 141001.1 2.7 1.7 3.5
2016-May-17 17:00N 53°12' W 050°54'0 0.0 170 / 141001.0 3.0 1.9 3.5
2016-May-17 16:00N 53°12' W 050°54'0 0.0 170 / 161001.4 2.9 2.0 3.3
2016-May-17 15:00N 53°12' W 050°54'7 7.0 160 / 171001.7 2.7 2.7 3.1
2016-May-17 14:00N 53°06' W 051°00'4 3.6 170 / 141002.0 2.5 2.4 3.6
2016-May-17 13:00N 53°06' W 051°06'4 3.6 180 / 191001.5 1.4 1.2 3.2
2016-May-17 12:00N 53°06' W 051°00'0 0.0 190 / 141000.8 1.6 1.6 3.3
2016-May-17 10:00N 53°06' W 051°00'19 6.3 210 / 171001.3 0.9 3.2
2016-May-17 07:00N 53°12' W 050°30'6 6.0 150 / 191000.6 3.2 3.1 3.4
2016-May-17 06:00N 53°18' W 050°30'0 0.0 120 / 191001.2 3.9 3.9 3.4
2016-May-17 05:00N 53°18' W 050°30'16 8.1 110 / 191002.3 3.6 3.5 3.3
2016-May-17 03:00N 53°06' W 050°48'0 0.0 110 / 211004.2 3.5 3.5 3.0
2016-May-17 02:00N 53°06' W 050°48'4 3.6 100 / 211004.9 3.1 3.1 2.8
2016-May-17 01:00N 53°06' W 050°54'4 1.8 120 / 231005.7 2.8 3.1
2016-May-16 23:00N 53°06' W 051°00'7 3.5 110 / 191007.2 2.5 3.1
2016-May-16 21:00N 53°00' W 051°06'9 9.4 120 / 161007.0 2.2 2.2 3.4
2016-May-16 20:00N 53°06' W 050°54'28 5.6 120 / 141007.3 2.0 2.0 3.3
2016-May-16 15:00N 53°24' W 050°18'1212.3 280 / 41008.7 2.7 2.7 4.3
2016-May-16 14:00N 53°30' W 050°00'9 9.3 300 / 61008.4 2.5 2.5 4.7
2016-May-16 13:00N 53°36' W 049°48'0 0.0 280 / 61008.2 2.5 2.5 4.4
2016-May-16 12:00N 53°36' W 049°48'6 6.0 320 / 81007.3 2.7 2.7 4.3
2016-May-16 11:00N 53°30' W 049°48'0 0.0 330 / 81006.9 2.9 2.9 4.4
2016-May-16 10:00N 53°30' W 049°48'0 0.0 320 / 101007.3 3.2 3.2 4.4
2016-May-16 09:00N 53°30' W 049°48'12 4.1 320 / 101006.9 3.5 3.4 4.4
2016-May-16 06:00N 53°24' W 050°06'   340 / 121005.6 3.0 3.0 4.1

Dump ship's entire track history